Terminal Aerodrome Forecast
Issued by NWS Quad Cities IA IL

Home | Current Version | Previous Version | Text Only | Print | Product List | Glossary On
Versions: 1 2 3 4 5 6 7 8 9 10 11 12 13 14 15
000
FTUS43 KDVN 232331
TAFMLI
TAF
KMLI 232331Z 2400/2424 13012KT P6SM BKN150
     FM240400 15012KT P6SM BKN060 WS020/20050KT
     FM241400 17012KT P6SM BKN100
     FM241800 21012KT P6SM BKN040=

USA.gov is the U.S. government's official web portal to all federal, state and local government web resources and services.